Time;durP1;ratioP1;P1;durP2;ratioP2;P2;SDS_P1;SDS_P2;PMS_P1;PMS_P2;Temp;Humidity;BMP_temperature;BMP_pressure;BME280_temperature;BME280_humidity;BME280_pressure;Samples;Min_cycle;Max_cycle;Signal;HPM_P1;HPM_P2
2022/08/25 00:00:31;;;;;;;13.27;11.98;;;;;;;;;;4877248;29;20031;-83
2022/08/25 00:02:57;;;;;;;15.13;13.60;;;;;;;;;;4880268;29;20067;-83
2022/08/25 00:05:26;;;;;;;15.40;12.07;;;;;;;;;;4899440;29;20071;-82
2022/08/25 00:07:52;;;;;;;12.77;10.30;;;;;;;;;;4910841;29;20046;-82
2022/08/25 00:10:17;;;;;;;15.35;11.57;;;;;;;;;;4911855;29;20026;-82
2022/08/25 00:12:42;;;;;;;16.95;11.65;;;;;;;;;;4924757;29;20038;-82
2022/08/25 00:15:08;;;;;;;16.70;11.88;;;;;;;;;;4912065;29;20031;-83
2022/08/25 00:17:34;;;;;;;14.30;10.52;;;;;;;;;;4909997;29;20058;-83
2022/08/25 00:19:59;;;;;;;14.50;12.55;;;;;;;;;;4913231;29;20046;-83
2022/08/25 00:22:24;;;;;;;15.10;11.77;;;;;;;;;;4909148;29;20352;-83
2022/08/25 00:24:50;;;;;;;12.50;11.20;;;;;;;;;;4912846;29;20119;-83
2022/08/25 00:27:15;;;;;;;15.45;11.32;;;;;;;;;;4875357;29;20420;-84
2022/08/25 00:29:41;;;;;;;13.18;11.23;;;;;;;;;;4911152;29;20114;-84
2022/08/25 00:32:06;;;;;;;12.85;11.55;;;;;;;;;;4926649;29;20126;-85
2022/08/25 00:34:34;;;;;;;12.75;11.40;;;;;;;;;;4916536;29;20443;-84
2022/08/25 00:37:00;;;;;;;11.93;10.80;;;;;;;;;;4911751;29;20039;-83
2022/08/25 00:39:26;;;;;;;12.57;11.32;;;;;;;;;;4898931;29;20106;-83
2022/08/25 00:41:54;;;;;;;12.48;11.18;;;;;;;;;;4891875;29;20608;-84
2022/08/25 00:44:20;;;;;;;15.43;11.60;;;;;;;;;;4889960;29;20048;-84
2022/08/25 00:46:50;;;;;;;13.32;11.30;;;;;;;;;;4908502;29;20457;-83
2022/08/25 00:49:48;;;;;;;16.45;11.80;;;;;;;;;;4894301;29;20443;-84
2022/08/25 00:52:22;;;;;;;12.93;11.73;;;;;;;;;;4887926;29;20040;-84
2022/08/25 00:55:02;;;;;;;12.40;11.20;;;;;;;;;;4878646;29;20087;-84
2022/08/25 00:57:45;;;;;;;18.85;11.07;;;;;;;;;;4878923;29;20036;-84
2022/08/25 01:00:15;;;;;;;11.57;10.27;;;;;;;;;;4894184;29;20058;-84
2022/08/25 01:02:40;;;;;;;13.30;12.00;;;;;;;;;;4879083;29;20036;-84
2022/08/25 01:05:06;;;;;;;11.65;9.93;;;;;;;;;;4880715;29;20718;-84
2022/08/25 01:07:32;;;;;;;12.15;11.00;;;;;;;;;;4879941;29;20039;-85
2022/08/25 01:09:58;;;;;;;14.23;9.90;;;;;;;;;;4876723;29;20060;-85
2022/08/25 01:12:23;;;;;;;11.70;10.50;;;;;;;;;;4906979;29;20032;-84
2022/08/25 01:14:49;;;;;;;30.73;11.90;;;;;;;;;;4916495;29;20043;-82
2022/08/25 01:17:14;;;;;;;11.90;10.23;;;;;;;;;;4908647;29;20134;-84
2022/08/25 01:19:40;;;;;;;14.30;10.38;;;;;;;;;;4861867;29;20054;-83
2022/08/25 01:22:06;;;;;;;17.05;11.05;;;;;;;;;;4894729;29;20370;-83
2022/08/25 01:24:40;;;;;;;15.32;10.63;;;;;;;;;;4863411;29;20024;-84
2022/08/25 01:27:05;;;;;;;12.32;9.40;;;;;;;;;;4877339;29;20040;-83
2022/08/25 01:29:30;;;;;;;10.30;9.32;;;;;;;;;;4878868;29;20192;-83
2022/08/25 01:31:58;;;;;;;13.00;9.75;;;;;;;;;;4923572;29;20032;-83
2022/08/25 01:34:30;;;;;;;11.20;10.00;;;;;;;;;;4891946;29;20051;-83
2022/08/25 01:36:56;;;;;;;10.82;9.45;;;;;;;;;;4905962;29;20076;-82
2022/08/25 01:39:21;;;;;;;11.73;8.80;;;;;;;;;;4909090;29;20036;-81
2022/08/25 01:42:10;;;;;;;12.15;9.82;;;;;;;;;;4909522;29;20032;-82
2022/08/25 01:44:43;;;;;;;13.40;9.32;;;;;;;;;;4873460;29;20481;-83
2022/08/25 01:47:08;;;;;;;14.25;9.52;;;;;;;;;;4910051;29;20499;-82
2022/08/25 01:49:34;;;;;;;11.23;8.18;;;;;;;;;;4895626;29;20024;-83
2022/08/25 01:52:04;;;;;;;10.60;8.57;;;;;;;;;;4894730;29;20559;-82
2022/08/25 01:54:29;;;;;;;11.98;8.55;;;;;;;;;;4926536;29;20099;-83
2022/08/25 01:56:55;;;;;;;13.10;8.68;;;;;;;;;;4897785;29;20027;-83
2022/08/25 01:59:20;;;;;;;12.55;8.88;;;;;;;;;;4908229;29;20107;-83
2022/08/25 02:01:45;;;;;;;10.52;8.85;;;;;;;;;;4909888;29;20036;-83
2022/08/25 02:04:11;;;;;;;11.43;9.23;;;;;;;;;;4896025;29;20047;-83
2022/08/25 02:06:36;;;;;;;15.95;8.40;;;;;;;;;;4902361;29;20127;-83
2022/08/25 02:09:07;;;;;;;19.90;8.88;;;;;;;;;;4912479;29;20035;-83
2022/08/25 02:11:37;;;;;;;23.20;9.80;;;;;;;;;;4927866;29;20065;-83
2022/08/25 02:14:03;;;;;;;15.30;9.05;;;;;;;;;;4923072;29;20035;-83
2022/08/25 02:16:31;;;;;;;12.90;8.70;;;;;;;;;;4897064;29;20032;-82
2022/08/25 02:18:58;;;;;;;15.90;9.48;;;;;;;;;;4909909;29;20032;-83
2022/08/25 02:21:23;;;;;;;10.75;7.90;;;;;;;;;;4924886;29;20090;-84
2022/08/25 02:23:48;;;;;;;11.73;8.93;;;;;;;;;;4912849;29;20136;-83
2022/08/25 02:26:15;;;;;;;12.55;8.52;;;;;;;;;;4897946;29;20062;-83
2022/08/25 02:28:41;;;;;;;12.65;8.00;;;;;;;;;;4911632;29;20054;-83
2022/08/25 02:31:07;;;;;;;14.48;7.03;;;;;;;;;;4896643;29;20043;-82
2022/08/25 02:33:32;;;;;;;12.52;7.53;;;;;;;;;;4890719;29;20043;-83
2022/08/25 02:35:58;;;;;;;10.57;7.32;;;;;;;;;;4901895;29;20114;-83
2022/08/25 02:38:26;;;;;;;12.45;7.63;;;;;;;;;;4898701;29;20028;-83
2022/08/25 02:40:52;;;;;;;9.93;6.75;;;;;;;;;;4914358;29;20035;-83
2022/08/25 02:43:18;;;;;;;9.93;7.30;;;;;;;;;;4935653;29;20031;-84
2022/08/25 02:45:43;;;;;;;13.45;7.20;;;;;;;;;;4860889;29;20048;-83
2022/08/25 02:48:09;;;;;;;7.75;6.13;;;;;;;;;;4895757;29;20503;-83
2022/08/25 02:50:34;;;;;;;9.70;6.13;;;;;;;;;;4865748;29;20028;-83
2022/08/25 02:52:59;;;;;;;11.52;6.18;;;;;;;;;;4874230;29;20039;-83
2022/08/25 02:55:25;;;;;;;15.88;6.25;;;;;;;;;;4897408;29;20442;-83
2022/08/25 02:57:50;;;;;;;20.65;5.72;;;;;;;;;;4895619;29;20068;-83
2022/08/25 03:00:16;;;;;;;15.93;5.78;;;;;;;;;;4910530;29;20504;-82
2022/08/25 03:02:41;;;;;;;11.23;5.90;;;;;;;;;;4893190;29;20031;-83
2022/08/25 03:05:08;;;;;;;9.57;5.60;;;;;;;;;;4881714;29;20036;-83
2022/08/25 03:07:34;;;;;;;10.38;5.03;;;;;;;;;;4891016;29;20407;-82
2022/08/25 03:10:04;;;;;;;10.95;5.22;;;;;;;;;;4878014;29;20028;-83
2022/08/25 03:12:29;;;;;;;8.05;5.05;;;;;;;;;;4888107;29;20028;-83
2022/08/25 03:14:55;;;;;;;15.90;5.05;;;;;;;;;;4886206;29;20056;-84
2022/08/25 03:17:20;;;;;;;10.15;5.25;;;;;;;;;;4911581;29;20036;-83
2022/08/25 03:19:46;;;;;;;6.13;4.13;;;;;;;;;;4877988;29;20047;-84
2022/08/25 03:22:11;;;;;;;9.63;4.43;;;;;;;;;;4894176;29;20531;-82
2022/08/25 03:24:39;;;;;;;8.00;4.55;;;;;;;;;;4912219;29;20132;-82
2022/08/25 03:27:05;;;;;;;10.43;4.90;;;;;;;;;;4881821;29;20028;-83
2022/08/25 03:29:31;;;;;;;11.20;5.10;;;;;;;;;;4866228;29;20419;-81
2022/08/25 03:31:57;;;;;;;7.68;4.65;;;;;;;;;;4894013;29;20028;-83
2022/08/25 03:34:23;;;;;;;11.05;4.95;;;;;;;;;;4897854;29;20084;-82
2022/08/25 03:36:50;;;;;;;10.35;5.47;;;;;;;;;;4867472;29;20032;-82
2022/08/25 03:39:16;;;;;;;16.27;6.03;;;;;;;;;;4898241;29;20032;-83
2022/08/25 03:41:41;;;;;;;14.75;5.72;;;;;;;;;;4923085;29;20021;-83
2022/08/25 03:44:08;;;;;;;7.65;4.90;;;;;;;;;;4903378;29;20099;-82
2022/08/25 03:46:37;;;;;;;10.15;5.45;;;;;;;;;;4918035;29;20036;-83
2022/08/25 03:49:03;;;;;;;10.90;5.43;;;;;;;;;;4932170;29;20051;-83
2022/08/25 03:51:31;;;;;;;11.32;5.85;;;;;;;;;;4918250;29;20030;-83
2022/08/25 03:53:57;;;;;;;6.57;5.03;;;;;;;;;;4886573;29;20484;-83
2022/08/25 03:56:23;;;;;;;7.30;4.75;;;;;;;;;;4917589;29;20027;-83
2022/08/25 03:58:48;;;;;;;6.38;4.88;;;;;;;;;;4933891;29;20028;-83
2022/08/25 04:01:15;;;;;;;10.93;6.70;;;;;;;;;;4934563;29;20095;-83
2022/08/25 04:03:40;;;;;;;10.40;5.90;;;;;;;;;;4934264;29;20555;-84
2022/08/25 04:06:06;;;;;;;9.32;6.55;;;;;;;;;;4933239;29;20103;-84
2022/08/25 04:08:31;;;;;;;13.48;7.03;;;;;;;;;;4918304;29;20040;-84
2022/08/25 04:10:57;;;;;;;13.43;6.22;;;;;;;;;;4931933;29;20082;-82
2022/08/25 04:13:22;;;;;;;10.90;6.70;;;;;;;;;;4916544;29;20066;-84
2022/08/25 04:15:48;;;;;;;11.57;6.82;;;;;;;;;;4898683;29;20139;-83
2022/08/25 04:18:13;;;;;;;13.50;6.90;;;;;;;;;;4900570;29;20036;-85
2022/08/25 04:20:40;;;;;;;11.85;6.70;;;;;;;;;;4913478;29;20031;-85
2022/08/25 04:23:06;;;;;;;10.35;6.85;;;;;;;;;;4914055;29;20436;-81
2022/08/25 04:25:31;;;;;;;13.52;7.13;;;;;;;;;;4893661;29;20106;-83
2022/08/25 04:27:56;;;;;;;11.75;7.47;;;;;;;;;;4926373;29;20137;-84
2022/08/25 04:30:22;;;;;;;13.35;7.28;;;;;;;;;;4914407;29;20091;-84
2022/08/25 04:32:48;;;;;;;10.30;7.22;;;;;;;;;;4926238;29;20027;-84
2022/08/25 04:35:13;;;;;;;13.60;8.25;;;;;;;;;;4931000;29;20110;-84
2022/08/25 04:37:39;;;;;;;13.63;7.85;;;;;;;;;;4932030;29;20031;-83
2022/08/25 04:40:05;;;;;;;15.93;8.35;;;;;;;;;;4899421;29;20031;-84
2022/08/25 04:42:30;;;;;;;8.93;7.70;;;;;;;;;;4933095;29;20556;-84
2022/08/25 04:44:56;;;;;;;9.98;8.98;;;;;;;;;;4928845;29;20079;-84
2022/08/25 04:47:21;;;;;;;12.90;9.60;;;;;;;;;;4913731;29;20463;-83
2022/08/25 04:49:46;;;;;;;16.40;8.90;;;;;;;;;;4911320;29;20134;-83
2022/08/25 04:52:12;;;;;;;12.95;8.18;;;;;;;;;;4914141;29;20472;-83
2022/08/25 04:54:37;;;;;;;14.55;9.05;;;;;;;;;;4882333;29;20123;-83
2022/08/25 04:57:03;;;;;;;14.18;8.93;;;;;;;;;;4882706;29;20027;-83
2022/08/25 04:59:28;;;;;;;11.38;8.05;;;;;;;;;;4890338;29;20051;-83
2022/08/25 05:01:53;;;;;;;14.73;9.20;;;;;;;;;;4915645;29;20087;-82
2022/08/25 05:04:19;;;;;;;15.02;8.88;;;;;;;;;;4918088;29;20503;-82
2022/08/25 05:06:45;;;;;;;14.50;8.15;;;;;;;;;;4943796;29;20199;-82
2022/08/25 05:09:11;;;;;;;13.52;8.18;;;;;;;;;;4913980;29;20111;-82
2022/08/25 05:11:36;;;;;;;12.98;8.73;;;;;;;;;;4928985;29;20058;-82
2022/08/25 05:14:02;;;;;;;12.80;8.30;;;;;;;;;;4926145;29;20042;-82
2022/08/25 05:16:27;;;;;;;14.10;8.70;;;;;;;;;;4949652;29;20114;-82
2022/08/25 05:18:53;;;;;;;14.18;7.85;;;;;;;;;;4963038;28;20121;-82
2022/08/25 05:21:21;;;;;;;10.60;8.13;;;;;;;;;;4918542;29;20054;-82
2022/08/25 05:23:47;;;;;;;11.68;8.45;;;;;;;;;;4894675;29;20039;-83
2022/08/25 05:26:14;;;;;;;17.95;8.57;;;;;;;;;;4916087;29;20400;-82
2022/08/25 05:28:40;;;;;;;16.92;8.63;;;;;;;;;;4916157;29;20395;-82
2022/08/25 05:31:07;;;;;;;10.77;9.30;;;;;;;;;;4904031;29;20032;-82
2022/08/25 05:33:33;;;;;;;12.15;8.88;;;;;;;;;;4927502;29;20495;-82
2022/08/25 05:35:58;;;;;;;10.93;8.52;;;;;;;;;;4862729;29;20032;-82
2022/08/25 05:38:24;;;;;;;9.70;8.32;;;;;;;;;;4913978;29;20085;-82
2022/08/25 05:40:58;;;;;;;17.83;8.48;;;;;;;;;;4914441;29;20035;-82
2022/08/25 05:43:27;;;;;;;12.40;8.07;;;;;;;;;;4915095;29;20019;-82
2022/08/25 05:45:56;;;;;;;12.93;7.75;;;;;;;;;;4844988;29;20103;-82
2022/08/25 05:48:22;;;;;;;16.42;8.27;;;;;;;;;;4874770;29;20040;-82
2022/08/25 05:50:55;;;;;;;13.13;6.43;;;;;;;;;;4907513;29;20461;-81
2022/08/25 05:53:21;;;;;;;12.25;7.15;;;;;;;;;;4861799;29;20044;-82
2022/08/25 05:55:47;;;;;;;12.32;6.97;;;;;;;;;;4878731;29;20099;-82
2022/08/25 05:58:12;;;;;;;10.10;6.95;;;;;;;;;;4889950;29;20111;-82
2022/08/25 06:00:38;;;;;;;14.27;7.00;;;;;;;;;;4894321;29;20107;-82
2022/08/25 06:03:03;;;;;;;13.52;7.07;;;;;;;;;;4872609;29;20483;-82
2022/08/25 06:05:29;;;;;;;14.43;7.18;;;;;;;;;;4920959;29;20416;-82
2022/08/25 06:07:54;;;;;;;10.30;6.20;;;;;;;;;;4911541;29;20063;-82
2022/08/25 06:10:20;;;;;;;12.32;6.28;;;;;;;;;;4894500;29;20028;-82
2022/08/25 06:12:46;;;;;;;12.27;6.40;;;;;;;;;;4894892;29;20040;-83
2022/08/25 06:15:16;;;;;;;10.10;6.78;;;;;;;;;;4912361;29;20024;-81
2022/08/25 06:17:41;;;;;;;23.27;6.95;;;;;;;;;;4892418;29;20032;-81
2022/08/25 06:20:12;;;;;;;16.08;6.75;;;;;;;;;;4912401;29;20092;-81
2022/08/25 06:22:38;;;;;;;13.02;5.32;;;;;;;;;;4870220;29;20088;-81
2022/08/25 06:25:04;;;;;;;11.75;5.82;;;;;;;;;;4880230;29;20477;-81
2022/08/25 06:27:30;;;;;;;12.00;5.55;;;;;;;;;;4877027;29;20038;-82
2022/08/25 06:29:55;;;;;;;14.95;6.68;;;;;;;;;;4895191;29;20040;-81
2022/08/25 06:32:20;;;;;;;7.78;4.63;;;;;;;;;;4893096;29;20398;-82
2022/08/25 06:34:46;;;;;;;10.30;5.35;;;;;;;;;;4910980;29;20473;-82
2022/08/25 06:37:11;;;;;;;9.40;5.03;;;;;;;;;;4883507;29;20036;-82
2022/08/25 06:39:37;;;;;;;9.93;4.80;;;;;;;;;;4912828;29;20039;-81
2022/08/25 06:42:02;;;;;;;18.08;5.50;;;;;;;;;;4882764;29;20039;-81
2022/08/25 06:44:28;;;;;;;14.50;4.82;;;;;;;;;;4900024;29;20504;-82
2022/08/25 06:46:53;;;;;;;10.45;4.80;;;;;;;;;;4933638;29;20040;-81
2022/08/25 06:49:19;;;;;;;11.63;4.88;;;;;;;;;;4915284;29;20036;-82
2022/08/25 06:51:44;;;;;;;13.00;5.10;;;;;;;;;;4899807;29;20032;-82
2022/08/25 06:54:10;;;;;;;7.43;4.55;;;;;;;;;;4896092;29;20203;-81
2022/08/25 06:56:35;;;;;;;8.95;4.60;;;;;;;;;;4896512;29;20500;-82
2022/08/25 06:59:02;;;;;;;9.20;3.70;;;;;;;;;;4913636;29;20039;-82
2022/08/25 07:01:27;;;;;;;11.40;5.13;;;;;;;;;;4914905;29;20066;-82
2022/08/25 07:03:56;;;;;;;14.85;4.63;;;;;;;;;;4895601;29;20106;-82
2022/08/25 07:06:21;;;;;;;8.90;4.07;;;;;;;;;;4932601;29;20492;-82
2022/08/25 07:08:47;;;;;;;11.35;4.47;;;;;;;;;;4915407;29;20055;-82
2022/08/25 07:11:13;;;;;;;12.25;5.10;;;;;;;;;;4894769;29;20153;-82
2022/08/25 07:13:38;;;;;;;13.27;3.92;;;;;;;;;;4915832;29;20479;-80
2022/08/25 07:16:04;;;;;;;13.55;3.75;;;;;;;;;;4904136;29;20036;-81
2022/08/25 07:18:30;;;;;;;7.85;3.90;;;;;;;;;;4900242;29;20064;-81
2022/08/25 07:20:56;;;;;;;7.53;4.13;;;;;;;;;;4899132;29;20432;-81
2022/08/25 07:23:22;;;;;;;10.15;3.55;;;;;;;;;;4914872;29;20499;-81
2022/08/25 07:25:47;;;;;;;7.13;3.70;;;;;;;;;;4912246;29;20079;-81
2022/08/25 07:28:13;;;;;;;8.55;3.97;;;;;;;;;;4917161;29;20082;-81
2022/08/25 07:30:39;;;;;;;11.50;4.43;;;;;;;;;;4915889;29;20027;-81
2022/08/25 07:33:04;;;;;;;7.40;3.45;;;;;;;;;;4918343;29;20050;-81
2022/08/25 07:35:32;;;;;;;8.80;3.67;;;;;;;;;;4933283;29;20135;-81
2022/08/25 07:37:58;;;;;;;13.18;3.83;;;;;;;;;;4900030;29;20444;-81
2022/08/25 07:40:28;;;;;;;11.45;4.20;;;;;;;;;;4902346;29;20039;-81
2022/08/25 07:42:55;;;;;;;10.80;4.03;;;;;;;;;;4917218;29;20082;-81
2022/08/25 07:45:28;;;;;;;7.57;3.38;;;;;;;;;;4916488;29;20052;-81
2022/08/25 07:47:54;;;;;;;10.10;3.03;;;;;;;;;;4893549;29;20043;-82
2022/08/25 07:50:19;;;;;;;7.38;2.90;;;;;;;;;;4910281;29;20031;-84
2022/08/25 07:52:45;;;;;;;6.47;3.00;;;;;;;;;;4901953;29;20031;-81
2022/08/25 07:55:10;;;;;;;9.77;3.13;;;;;;;;;;4903809;29;20043;-81
2022/08/25 07:57:38;;;;;;;7.78;3.53;;;;;;;;;;4917828;29;20038;-82
2022/08/25 08:00:05;;;;;;;5.47;3.05;;;;;;;;;;4914063;29;20041;-82
2022/08/25 08:02:30;;;;;;;6.43;3.33;;;;;;;;;;4913048;29;20373;-82
2022/08/25 08:04:56;;;;;;;5.70;3.17;;;;;;;;;;4912631;29;20071;-82
2022/08/25 08:07:24;;;;;;;10.40;3.10;;;;;;;;;;4898533;29;20447;-82
2022/08/25 08:09:50;;;;;;;9.20;3.13;;;;;;;;;;4912931;29;20032;-82
2022/08/25 08:12:15;;;;;;;7.43;3.75;;;;;;;;;;4927337;29;20050;-81
2022/08/25 08:14:41;;;;;;;16.27;2.63;;;;;;;;;;4928619;29;20027;-81
2022/08/25 08:17:07;;;;;;;8.68;3.30;;;;;;;;;;4928734;29;20119;-82
2022/08/25 08:19:32;;;;;;;7.18;3.17;;;;;;;;;;4917979;29;20130;-81
2022/08/25 08:21:58;;;;;;;5.80;2.80;;;;;;;;;;4917291;29;20054;-81
2022/08/25 08:24:23;;;;;;;9.48;3.33;;;;;;;;;;4917171;29;20111;-81
2022/08/25 08:26:48;;;;;;;6.15;3.15;;;;;;;;;;4932086;29;20464;-81
2022/08/25 08:29:15;;;;;;;8.55;3.00;;;;;;;;;;4917508;29;20171;-81
2022/08/25 08:31:40;;;;;;;10.02;2.75;;;;;;;;;;4948366;29;20122;-82
2022/08/25 08:34:06;;;;;;;7.30;2.95;;;;;;;;;;4915632;29;20534;-82
2022/08/25 08:36:32;;;;;;;6.03;3.40;;;;;;;;;;4928314;29;20035;-82
2022/08/25 08:38:57;;;;;;;9.85;3.28;;;;;;;;;;4899000;29;20035;-82
2022/08/25 08:44:43;;;;;;;9.93;3.28;;;;;;;;;;4917885;29;20050;-81
2022/08/25 08:47:49;;;;;;;8.70;2.58;;;;;;;;;;4907374;29;20047;-82
2022/08/25 08:50:23;;;;;;;6.68;2.95;;;;;;;;;;4911740;29;20568;-82
2022/08/25 08:52:53;;;;;;;5.97;2.95;;;;;;;;;;4910467;29;20028;-82
2022/08/25 08:55:27;;;;;;;7.68;3.03;;;;;;;;;;4893177;29;20485;-82
2022/08/25 08:57:54;;;;;;;9.90;3.08;;;;;;;;;;4892176;29;20031;-82
2022/08/25 09:00:20;;;;;;;5.28;3.30;;;;;;;;;;4893800;29;20028;-82
2022/08/25 09:02:56;;;;;;;6.50;3.55;;;;;;;;;;4877590;29;20496;-82
2022/08/25 09:05:23;;;;;;;12.98;3.08;;;;;;;;;;4864928;29;20516;-81
2022/08/25 09:07:51;;;;;;;6.55;3.03;;;;;;;;;;4895473;29;20036;-82
2022/08/25 09:10:17;;;;;;;9.88;3.17;;;;;;;;;;4884114;29;20042;-82
2022/08/25 09:12:53;;;;;;;7.13;2.70;;;;;;;;;;4897218;29;20457;-82
2022/08/25 09:18:49;;;;;;;9.73;3.08;;;;;;;;;;4912118;29;20023;-82
2022/08/25 09:21:47;;;;;;;8.13;2.65;;;;;;;;;;4908011;29;20028;-82
2022/08/25 09:24:22;;;;;;;8.25;2.40;;;;;;;;;;4906485;29;20388;-82
2022/08/25 09:27:15;;;;;;;6.35;2.65;;;;;;;;;;4891914;29;20159;-82
2022/08/25 09:29:52;;;;;;;14.10;3.05;;;;;;;;;;4907171;29;20114;-82
2022/08/25 09:32:17;;;;;;;5.45;2.58;;;;;;;;;;4893820;29;20028;-83
2022/08/25 09:34:42;;;;;;;8.48;2.88;;;;;;;;;;4881315;29;20030;-83
2022/08/25 09:37:08;;;;;;;6.07;2.20;;;;;;;;;;4913648;29;20031;-82
2022/08/25 09:39:33;;;;;;;4.90;2.50;;;;;;;;;;4863676;29;20155;-82
2022/08/25 09:41:59;;;;;;;15.30;3.40;;;;;;;;;;4912949;29;20052;-82
2022/08/25 09:44:42;;;;;;;6.43;2.60;;;;;;;;;;4895396;29;20047;-82
2022/08/25 09:47:22;;;;;;;4.07;2.30;;;;;;;;;;4909966;29;20592;-82
2022/08/25 09:49:55;;;;;;;8.82;2.78;;;;;;;;;;4899711;29;20040;-82
2022/08/25 09:52:27;;;;;;;5.22;2.50;;;;;;;;;;4908825;29;20082;-82
2022/08/25 09:54:53;;;;;;;8.35;2.75;;;;;;;;;;4926785;29;20070;-82
2022/08/25 09:57:49;;;;;;;10.02;2.58;;;;;;;;;;4882181;29;20024;-81
2022/08/25 10:00:15;;;;;;;6.35;2.83;;;;;;;;;;4931702;29;20031;-82
2022/08/25 10:02:42;;;;;;;7.65;2.58;;;;;;;;;;4916114;29;20032;-82
2022/08/25 10:05:18;;;;;;;7.97;2.60;;;;;;;;;;4884531;29;20031;-82
2022/08/25 10:08:09;;;;;;;6.25;2.47;;;;;;;;;;4891084;29;20033;-82
2022/08/25 10:10:37;;;;;;;5.40;2.55;;;;;;;;;;4896300;29;20040;-82
2022/08/25 10:13:03;;;;;;;11.15;2.58;;;;;;;;;;4912142;29;20032;-82
2022/08/25 10:15:34;;;;;;;11.88;3.13;;;;;;;;;;4897146;29;20035;-82
2022/08/25 10:18:24;;;;;;;10.80;2.60;;;;;;;;;;4896613;29;20496;-82
2022/08/25 10:21:04;;;;;;;7.68;2.42;;;;;;;;;;4875111;29;20087;-82
2022/08/25 10:23:30;;;;;;;6.15;2.53;;;;;;;;;;4897569;29;20092;-82
2022/08/25 10:25:55;;;;;;;5.80;2.40;;;;;;;;;;4901062;29;20471;-82
2022/08/25 10:28:46;;;;;;;4.65;2.42;;;;;;;;;;4891808;29;20036;-82
2022/08/25 10:31:35;;;;;;;4.20;2.25;;;;;;;;;;4909480;29;20043;-82
2022/08/25 10:34:14;;;;;;;6.68;2.30;;;;;;;;;;4894022;29;20052;-82
2022/08/25 10:36:46;;;;;;;6.63;2.40;;;;;;;;;;4893847;29;20032;-82
2022/08/25 10:39:20;;;;;;;5.18;2.47;;;;;;;;;;4890507;29;20059;-82
2022/08/25 10:41:58;;;;;;;7.18;2.38;;;;;;;;;;4890510;29;20488;-82
2022/08/25 10:47:49;;;;;;;7.35;2.20;;;;;;;;;;4895916;29;20068;-82
2022/08/25 10:50:28;;;;;;;8.15;2.13;;;;;;;;;;4891870;29;20060;-82
2022/08/25 10:53:06;;;;;;;5.40;2.10;;;;;;;;;;4891486;29;20036;-83
2022/08/25 10:55:53;;;;;;;5.18;1.85;;;;;;;;;;4885466;29;20781;-83
2022/08/25 10:58:45;;;;;;;7.78;2.17;;;;;;;;;;4921183;29;20034;-83
2022/08/25 11:01:18;;;;;;;7.97;2.30;;;;;;;;;;4924650;29;20023;-83
2022/08/25 11:03:50;;;;;;;6.60;2.75;;;;;;;;;;4915894;29;20031;-83
2022/08/25 11:06:21;;;;;;;5.90;2.40;;;;;;;;;;4899697;29;20035;-82
2022/08/25 11:08:50;;;;;;;8.30;2.58;;;;;;;;;;4879978;29;20879;-83
2022/08/25 11:11:30;;;;;;;6.07;2.35;;;;;;;;;;4867134;29;20480;-83
2022/08/25 11:14:07;;;;;;;4.47;2.38;;;;;;;;;;4896113;29;20096;-83
2022/08/25 11:16:39;;;;;;;7.15;2.42;;;;;;;;;;4898080;29;20554;-83
2022/08/25 11:19:13;;;;;;;4.65;2.35;;;;;;;;;;4902214;29;20096;-83
2022/08/25 11:22:00;;;;;;;8.98;2.22;;;;;;;;;;4894787;29;20054;-83
2022/08/25 11:24:35;;;;;;;9.00;2.13;;;;;;;;;;4902330;29;20246;-83
2022/08/25 11:27:00;;;;;;;7.03;2.08;;;;;;;;;;4898223;29;20062;-83
2022/08/25 11:29:30;;;;;;;4.78;2.20;;;;;;;;;;4881309;29;20028;-82
2022/08/25 11:31:56;;;;;;;5.07;1.98;;;;;;;;;;4931343;29;20024;-82
2022/08/25 11:34:22;;;;;;;5.00;1.90;;;;;;;;;;4895114;29;20088;-82
2022/08/25 11:36:53;;;;;;;6.28;2.42;;;;;;;;;;4890398;29;20081;-82
2022/08/25 11:39:43;;;;;;;5.57;2.40;;;;;;;;;;4899717;29;20032;-82
2022/08/25 11:42:50;;;;;;;4.88;2.30;;;;;;;;;;4899681;29;20032;-82
2022/08/25 11:45:21;;;;;;;5.40;2.40;;;;;;;;;;4883043;29;20192;-83
2022/08/25 11:48:00;;;;;;;5.80;2.45;;;;;;;;;;4899301;29;20048;-83
2022/08/25 11:50:33;;;;;;;6.95;2.80;;;;;;;;;;4899438;29;20059;-83
2022/08/25 11:53:11;;;;;;;5.90;2.65;;;;;;;;;;4902073;29;20028;-83
2022/08/25 11:55:36;;;;;;;6.85;2.85;;;;;;;;;;4900392;29;20059;-83
2022/08/25 11:58:24;;;;;;;6.00;2.60;;;;;;;;;;4915100;29;20058;-83
2022/08/25 12:00:49;;;;;;;9.02;2.40;;;;;;;;;;4880437;29;20304;-83
2022/08/25 12:03:33;;;;;;;8.43;2.80;;;;;;;;;;4887638;29;20404;-82
2022/08/25 12:06:23;;;;;;;7.88;2.63;;;;;;;;;;4908601;29;20472;-82
2022/08/25 12:08:58;;;;;;;7.05;2.92;;;;;;;;;;4890731;29;20468;-82
2022/08/25 12:12:34;;;;;;;7.63;2.63;;;;;;;;;;4914379;29;20469;-82
2022/08/25 12:15:17;;;;;;;5.43;2.65;;;;;;;;;;4851663;29;20205;-82
2022/08/25 12:17:43;;;;;;;7.13;2.75;;;;;;;;;;4881953;29;20413;-83
2022/08/25 12:20:08;;;;;;;4.40;2.42;;;;;;;;;;4890892;29;20131;-83
2022/08/25 12:22:33;;;;;;;4.85;2.83;;;;;;;;;;4896201;29;20099;-82
2022/08/25 12:25:12;;;;;;;10.80;2.70;;;;;;;;;;4913977;29;20118;-82
2022/08/25 12:28:03;;;;;;;8.68;2.97;;;;;;;;;;4927316;29;20433;-82
2022/08/25 12:30:49;;;;;;;6.38;2.83;;;;;;;;;;4907174;29;20374;-83
2022/08/25 12:33:47;;;;;;;8.93;3.00;;;;;;;;;;4917216;29;20503;-83
2022/08/25 12:36:29;;;;;;;8.65;3.28;;;;;;;;;;4862577;29;20529;-83
2022/08/25 12:38:55;;;;;;;5.90;2.65;;;;;;;;;;4872011;29;20032;-83
2022/08/25 12:41:22;;;;;;;6.47;2.92;;;;;;;;;;4893187;29;20088;-82
2022/08/25 12:43:48;;;;;;;10.45;2.63;;;;;;;;;;4895525;29;20028;-82
2022/08/25 12:46:27;;;;;;;5.40;2.60;;;;;;;;;;4911277;29;20063;-82
2022/08/25 12:49:28;;;;;;;7.60;2.38;;;;;;;;;;4915279;29;20040;-82
2022/08/25 12:51:57;;;;;;;6.35;2.72;;;;;;;;;;4929871;29;20035;-83
2022/08/25 12:54:36;;;;;;;3.88;2.10;;;;;;;;;;4931332;29;20035;-83
2022/08/25 12:57:21;;;;;;;6.60;2.08;;;;;;;;;;4931105;29;20432;-82
2022/08/25 12:59:49;;;;;;;6.28;2.67;;;;;;;;;;4912384;29;20035;-82
2022/08/25 13:02:30;;;;;;;4.55;1.90;;;;;;;;;;4934006;28;20456;-82
2022/08/25 13:05:12;;;;;;;4.78;2.22;;;;;;;;;;4907159;29;20493;-83
2022/08/25 13:08:00;;;;;;;4.22;2.28;;;;;;;;;;4922596;29;20038;-82
2022/08/25 13:10:43;;;;;;;4.25;2.38;;;;;;;;;;4911167;29;20050;-82
2022/08/25 13:13:35;;;;;;;6.30;2.30;;;;;;;;;;4931585;29;20099;-82
2022/08/25 13:16:01;;;;;;;;;;;;;;;;;;4914616;29;20070;-83
2022/08/25 13:18:28;;;;;;;6.57;2.00;;;;;;;;;;4929326;29;19918;-82
2022/08/25 13:21:13;;;;;;;4.97;2.28;;;;;;;;;;4915618;29;20042;-83
2022/08/25 13:23:40;;;;;;;12.52;2.78;;;;;;;;;;4916036;29;20074;-83
2022/08/25 13:26:06;;;;;;;3.53;1.98;;;;;;;;;;4897144;29;20031;-83
2022/08/25 13:28:36;;;;;;;4.82;2.00;;;;;;;;;;4894026;29;20030;-83
2022/08/25 13:31:04;;;;;;;5.50;2.20;;;;;;;;;;4910420;29;20081;-81
2022/08/25 13:33:30;;;;;;;6.45;2.17;;;;;;;;;;4941121;28;20436;-82
2022/08/25 13:45:49;;;;;;;2.40;1.60;;;;;;;;;;4929506;29;20403;-82
2022/08/25 13:48:31;;;;;;;6.05;1.67;;;;;;;;;;4896668;29;20106;-83
2022/08/25 13:51:05;;;;;;;2.92;1.88;;;;;;;;;;4889019;29;20500;-83
2022/08/25 13:53:30;;;;;;;5.30;2.05;;;;;;;;;;4928987;29;20083;-83
2022/08/25 13:56:00;;;;;;;3.17;1.88;;;;;;;;;;4898387;29;20514;-83
2022/08/25 13:58:35;;;;;;;3.60;2.30;;;;;;;;;;4895715;29;20042;-84
2022/08/25 14:01:22;;;;;;;5.60;2.03;;;;;;;;;;4900574;29;20114;-83
2022/08/25 14:03:47;;;;;;;5.65;2.00;;;;;;;;;;4926170;29;20352;-83
2022/08/25 14:06:13;;;;;;;5.22;1.90;;;;;;;;;;4912615;29;20020;-83
2022/08/25 14:08:39;;;;;;;2.83;1.70;;;;;;;;;;4930918;29;20036;-83
2022/08/25 14:11:12;;;;;;;4.80;2.28;;;;;;;;;;4922500;28;20477;-84
2022/08/25 14:13:38;;;;;;;5.53;1.80;;;;;;;;;;4925271;29;20032;-83
2022/08/25 14:16:14;;;;;;;2.45;1.52;;;;;;;;;;4895860;29;20046;-83
2022/08/25 14:18:47;;;;;;;3.72;1.85;;;;;;;;;;4923305;29;20024;-83
2022/08/25 14:21:12;;;;;;;3.15;1.65;;;;;;;;;;4915541;29;20107;-83
2022/08/25 14:23:38;;;;;;;2.90;1.83;;;;;;;;;;4929686;29;20531;-82
2022/08/25 14:26:04;;;;;;;3.60;2.25;;;;;;;;;;4912048;29;20077;-83
2022/08/25 14:28:29;;;;;;;3.42;1.98;;;;;;;;;;4911393;29;20038;-83
2022/08/25 14:31:03;;;;;;;3.95;2.10;;;;;;;;;;4919466;29;20144;-82
2022/08/25 14:33:32;;;;;;;4.60;2.10;;;;;;;;;;4920226;29;20035;-83
2022/08/25 14:35:58;;;;;;;3.72;2.00;;;;;;;;;;4909215;29;20033;-83
2022/08/25 14:38:23;;;;;;;4.10;1.83;;;;;;;;;;4919567;29;20070;-83
2022/08/25 14:40:48;;;;;;;4.85;2.10;;;;;;;;;;4919010;29;20122;-83
2022/08/25 14:43:14;;;;;;;4.43;1.65;;;;;;;;;;4930455;29;20027;-83
2022/08/25 14:45:41;;;;;;;5.50;2.00;;;;;;;;;;4942830;28;20119;-83
2022/08/25 14:48:07;;;;;;;6.78;2.00;;;;;;;;;;4945549;28;20035;-84
2022/08/25 14:50:34;;;;;;;4.28;2.10;;;;;;;;;;4947853;29;20031;-83
2022/08/25 14:52:59;;;;;;;3.60;1.80;;;;;;;;;;4927429;29;20130;-82
2022/08/25 14:55:25;;;;;;;3.85;2.25;;;;;;;;;;4914476;29;20476;-83
2022/08/25 14:57:50;;;;;;;4.53;1.90;;;;;;;;;;4913313;29;20099;-82
2022/08/25 15:00:16;;;;;;;3.38;2.15;;;;;;;;;;4926937;29;20391;-83
2022/08/25 15:02:41;;;;;;;4.45;1.90;;;;;;;;;;4914173;29;20028;-82
2022/08/25 15:05:09;;;;;;;6.65;1.98;;;;;;;;;;4897396;29;20031;-83
2022/08/25 15:10:19;;;;;;;4.47;1.65;;;;;;;;;;4904057;29;20075;-82
2022/08/25 15:12:44;;;;;;;5.10;2.05;;;;;;;;;;4917798;29;20048;-82